createdAt,value
2023-07-03T00:00:20.565Z,63.12
2023-07-03T00:03:23.653Z,64.12
2023-07-03T00:06:25.767Z,63.83
2023-07-03T00:09:27.690Z,64.43
2023-07-03T00:12:29.676Z,65.72
2023-07-03T00:15:32.067Z,66.37
2023-07-03T00:18:34.015Z,67.39
2023-07-03T00:21:44.963Z,67.28
2023-07-03T00:24:47.099Z,66.84
2023-07-03T00:27:49.244Z,68.38
2023-07-03T00:30:51.235Z,67.63
2023-07-03T00:33:53.101Z,68.72
2023-07-03T00:36:55.921Z,68.23
2023-07-03T00:39:57.892Z,68.95
2023-07-03T00:43:00.231Z,68.60
2023-07-03T00:46:02.308Z,68.59
2023-07-03T00:49:06.075Z,67.96
2023-07-03T00:52:10.853Z,67.48
2023-07-03T00:55:14.932Z,67.02
2023-07-03T00:58:17.025Z,66.71
2023-07-03T01:01:35.643Z,66.19
2023-07-03T01:04:56.901Z,66.13
2023-07-03T01:08:00.467Z,65.34
2023-07-03T01:11:02.878Z,64.50
2023-07-03T01:14:08.543Z,64.47
2023-07-03T01:17:11.870Z,64.07
2023-07-03T01:20:18.204Z,64.51
2023-07-03T01:23:43.628Z,65.04
2023-07-03T01:26:47.554Z,65.17
2023-07-03T01:29:53.990Z,66.34
2023-07-03T01:32:57.916Z,66.39
2023-07-03T01:36:01.300Z,66.10
2023-07-03T01:39:04.220Z,66.58
2023-07-03T01:42:08.103Z,65.78
2023-07-03T01:45:10.961Z,65.87
2023-07-03T01:48:13.036Z,65.89
2023-07-03T01:51:21.557Z,66.22
2023-07-03T01:54:32.441Z,66.51
2023-07-03T01:57:48.085Z,66.77
2023-07-03T02:00:56.349Z,66.43
2023-07-03T02:04:08.042Z,66.58
2023-07-03T02:07:13.058Z,66.59
2023-07-03T02:10:15.096Z,66.73
2023-07-03T02:13:17.318Z,66.75
2023-07-03T02:16:19.285Z,68.02
2023-07-03T02:19:28.649Z,68.32
2023-07-03T02:22:30.647Z,67.85
2023-07-03T02:25:32.642Z,67.87
2023-07-03T02:28:35.832Z,68.10
2023-07-03T02:31:38.161Z,68.16
2023-07-03T02:34:40.450Z,69.56
2023-07-03T02:37:42.350Z,73.81
2023-07-03T02:40:44.599Z,76.70
2023-07-03T02:43:46.562Z,76.21
2023-07-03T02:46:48.685Z,75.90
2023-07-03T02:49:50.748Z,76.02
2023-07-03T02:52:52.726Z,75.74
2023-07-03T02:55:57.739Z,75.43
2023-07-03T02:58:59.715Z,75.19
2023-07-03T03:02:01.822Z,74.81
2023-07-03T03:05:03.981Z,74.44
2023-07-03T03:08:06.046Z,74.52
2023-07-03T03:11:08.179Z,74.59
2023-07-03T03:14:10.233Z,75.09
2023-07-03T03:17:12.157Z,75.05
2023-07-03T03:20:17.272Z,75.03
2023-07-03T03:23:19.252Z,75.95
2023-07-03T03:26:21.750Z,75.41
2023-07-03T03:29:23.827Z,75.51
2023-07-03T03:32:26.645Z,75.60
2023-07-03T03:35:28.600Z,76.01
2023-07-03T03:38:30.571Z,76.12
2023-07-03T03:41:32.687Z,76.32
2023-07-03T03:44:34.930Z,76.81
2023-07-03T03:47:36.982Z,77.77
2023-07-03T03:50:39.420Z,78.11
2023-07-03T03:53:41.564Z,79.12
2023-07-03T03:56:43.564Z,79.91
2023-07-03T03:59:45.673Z,81.23
2023-07-03T04:02:48.314Z,81.85
2023-07-03T04:05:50.693Z,81.71
2023-07-03T04:08:53.205Z,83.24
2023-07-03T04:11:55.561Z,82.40
2023-07-03T04:14:57.525Z,81.55
2023-07-03T04:17:59.614Z,81.63
2023-07-03T04:21:01.592Z,81.76
2023-07-03T04:24:03.724Z,81.84
2023-07-03T04:27:06.430Z,81.61
2023-07-03T04:30:09.311Z,81.42
2023-07-03T04:33:11.301Z,81.51
2023-07-03T04:36:14.368Z,80.26
2023-07-03T04:39:17.106Z,81.18
2023-07-03T04:42:19.010Z,81.65
2023-07-03T04:45:22.718Z,82.32
2023-07-03T04:48:24.684Z,81.99
2023-07-03T04:51:31.999Z,81.72
2023-07-03T04:54:34.413Z,81.46
2023-07-03T04:57:43.528Z,81.52
2023-07-03T05:00:45.416Z,82.23
2023-07-03T05:03:47.562Z,82.39
2023-07-03T05:06:50.070Z,82.72
2023-07-03T05:09:52.058Z,82.92
2023-07-03T05:12:54.254Z,83.28
2023-07-03T05:15:56.357Z,83.36
2023-07-03T05:18:58.357Z,83.42
2023-07-03T05:22:00.325Z,83.77
2023-07-03T05:25:02.376Z,84.93
2023-07-03T05:28:04.491Z,84.53
2023-07-03T05:31:06.603Z,85.35
2023-07-03T05:34:08.660Z,85.15
2023-07-03T05:37:10.651Z,85.08
2023-07-03T05:40:16.327Z,84.81
2023-07-03T05:43:19.780Z,84.57
2023-07-03T05:46:21.830Z,83.88
2023-07-03T05:49:23.840Z,82.36
2023-07-03T05:52:26.388Z,81.37
2023-07-03T05:55:28.407Z,80.33
2023-07-03T05:58:30.599Z,79.55
2023-07-03T06:01:32.741Z,78.95
2023-07-03T06:04:34.979Z,77.91
2023-07-03T06:07:36.887Z,77.98
2023-07-03T06:10:39.591Z,77.86
2023-07-03T06:13:41.659Z,77.79
2023-07-03T06:16:44.889Z,78.12
2023-07-03T06:19:46.880Z,78.94
2023-07-03T06:22:49.168Z,79.65
2023-07-03T06:25:52.012Z,80.05
2023-07-03T06:28:54.269Z,80.41
2023-07-03T06:31:56.247Z,79.55
2023-07-03T06:34:58.531Z,80.56
2023-07-03T06:38:02.268Z,81.54
2023-07-03T06:41:04.347Z,79.34
2023-07-03T06:44:07.906Z,79.73
2023-07-03T06:47:09.950Z,80.24
2023-07-03T06:50:12.213Z,80.07
2023-07-03T06:53:14.195Z,79.83
2023-07-03T06:56:16.216Z,79.84
2023-07-03T06:59:18.296Z,78.58
2023-07-03T07:02:20.520Z,78.24
2023-07-03T07:05:22.730Z,77.51
2023-07-03T07:08:24.804Z,76.86
2023-07-03T07:11:34.671Z,76.03
2023-07-03T07:14:36.942Z,75.86
2023-07-03T07:17:51.051Z,75.81
2023-07-03T07:20:55.699Z,75.81
2023-07-03T07:23:59.526Z,75.67
2023-07-03T07:27:01.801Z,76.33
2023-07-03T07:30:04.245Z,76.89
2023-07-03T07:33:06.299Z,77.97
2023-07-03T07:36:13.631Z,78.17
2023-07-03T07:39:15.883Z,78.33
2023-07-03T07:42:17.942Z,78.41
2023-07-03T07:45:20.064Z,78.20
2023-07-03T07:48:23.135Z,78.74
2023-07-03T07:51:27.189Z,78.39
2023-07-03T07:54:29.194Z,77.59
2023-07-03T07:57:31.547Z,77.42
2023-07-03T08:00:33.621Z,78.02
2023-07-03T08:03:35.827Z,77.00
2023-07-03T08:06:37.848Z,77.23
2023-07-03T08:09:39.933Z,77.56
2023-07-03T08:12:43.280Z,76.59
2023-07-03T08:15:46.853Z,76.16
2023-07-03T08:18:50.010Z,75.75
2023-07-03T08:21:52.471Z,74.90
2023-07-03T08:24:54.756Z,73.69
2023-07-03T08:27:56.937Z,73.91
2023-07-03T08:30:59.482Z,74.27
2023-07-03T08:34:01.801Z,74.26
2023-07-03T08:40:09.991Z,74.71
2023-07-03T08:43:19.735Z,75.97
2023-07-03T08:46:25.472Z,75.20
2023-07-03T08:49:28.803Z,75.31
2023-07-03T08:52:51.283Z,76.13
2023-07-03T08:55:58.512Z,76.17
2023-07-03T08:59:04.022Z,77.12
2023-07-03T09:02:20.705Z,76.17
2023-07-03T09:05:49.784Z,75.96
2023-07-03T09:09:08.349Z,75.62
2023-07-03T09:12:34.830Z,75.30
2023-07-03T09:15:45.764Z,75.80
2023-07-03T09:18:52.726Z,75.73
2023-07-03T09:21:59.136Z,75.64
2023-07-03T09:25:05.120Z,76.16
2023-07-03T09:28:10.564Z,76.94
2023-07-03T09:31:12.539Z,78.22
2023-07-03T09:34:17.381Z,78.69
2023-07-03T09:37:19.318Z,78.28
2023-07-03T09:40:30.313Z,79.44
2023-07-03T09:43:32.989Z,80.49
2023-07-03T09:46:35.096Z,79.92
2023-07-03T09:49:37.538Z,79.31
2023-07-03T09:52:59.362Z,79.44
2023-07-03T09:56:17.915Z,79.47
2023-07-03T09:59:21.095Z,78.38
2023-07-03T10:08:43.179Z,76.90
2023-07-03T10:12:13.299Z,75.65
2023-07-03T10:15:21.705Z,75.62
2023-07-03T10:18:35.495Z,75.28
2023-07-03T10:21:40.067Z,74.62
2023-07-03T10:24:43.990Z,73.70
2023-07-03T10:27:47.652Z,73.02
2023-07-03T10:30:55.087Z,72.18
2023-07-03T10:34:03.532Z,71.23
2023-07-03T10:37:07.518Z,69.63
2023-07-03T10:40:18.729Z,67.83
2023-07-03T10:43:23.257Z,65.96
2023-07-03T10:46:51.522Z,65.55
2023-07-03T10:49:53.560Z,64.31
2023-07-03T10:53:24.605Z,64.06
2023-07-03T10:56:43.496Z,63.04
2023-07-03T10:59:50.929Z,61.68
2023-07-03T11:03:29.080Z,61.13
2023-07-03T11:06:58.539Z,60.87
2023-07-03T11:10:27.254Z,61.41
2023-07-03T11:13:45.513Z,61.82
2023-07-03T11:16:59.415Z,63.00
2023-07-03T11:20:27.086Z,62.12
2023-07-03T11:23:38.568Z,62.13
2023-07-03T11:29:49.185Z,60.75
2023-07-03T11:32:51.668Z,59.47
2023-07-03T11:35:59.072Z,57.36
2023-07-03T11:46:06.798Z,55.48
2023-07-03T11:49:13.285Z,54.55
2023-07-03T11:52:26.668Z,55.89
2023-07-03T11:55:38.654Z,55.56
2023-07-03T11:58:41.057Z,57.90
2023-07-03T12:01:43.250Z,57.72
2023-07-03T12:04:49.827Z,58.17
2023-07-03T12:07:52.434Z,58.47
2023-07-03T12:11:00.339Z,59.69
2023-07-03T12:14:02.450Z,60.27
2023-07-03T12:17:04.726Z,59.74
2023-07-03T12:20:11.828Z,59.43
2023-07-03T12:23:30.639Z,56.58
2023-07-03T12:26:33.179Z,54.65
2023-07-03T12:29:49.372Z,53.91
2023-07-03T12:32:53.016Z,54.41
2023-07-03T12:35:55.102Z,53.95
2023-07-03T12:38:58.083Z,51.35
2023-07-03T12:42:09.234Z,51.10
2023-07-03T12:45:20.461Z,50.60
2023-07-03T12:48:24.318Z,48.37
2023-07-03T12:51:26.356Z,45.97
2023-07-03T12:54:28.517Z,45.81
2023-07-03T12:57:35.542Z,46.61
2023-07-03T13:00:37.864Z,46.14
2023-07-03T13:03:42.167Z,45.41
2023-07-03T13:06:45.245Z,44.13
2023-07-03T13:09:47.497Z,44.06
2023-07-03T13:13:11.745Z,43.06
2023-07-03T13:16:19.135Z,42.02
2023-07-03T13:19:35.991Z,42.46
2023-07-03T13:22:38.339Z,43.89
2023-07-03T13:25:52.544Z,44.26
2023-07-03T13:29:02.862Z,45.53
2023-07-03T13:32:23.569Z,45.33
2023-07-03T13:35:32.481Z,48.62
2023-07-03T13:38:35.350Z,49.31
2023-07-03T13:41:39.003Z,49.37
2023-07-03T13:44:40.964Z,49.28
2023-07-03T13:47:42.969Z,50.02
2023-07-03T13:50:45.378Z,51.78
2023-07-03T13:53:51.150Z,52.97
2023-07-03T13:56:55.960Z,53.26
2023-07-03T13:59:57.945Z,53.85
2023-07-03T14:03:00.142Z,54.86
2023-07-03T14:06:02.519Z,55.55
2023-07-03T14:09:05.525Z,55.62
2023-07-03T14:12:08.097Z,57.25
2023-07-03T14:15:30.179Z,56.75
2023-07-03T14:18:32.328Z,56.21
2023-07-03T14:21:35.186Z,58.03
2023-07-03T14:24:37.184Z,58.22
2023-07-03T14:27:40.488Z,57.69
2023-07-03T14:30:43.080Z,59.84
2023-07-03T14:33:45.254Z,59.51
2023-07-03T14:36:47.813Z,58.36
2023-07-03T14:39:49.840Z,58.22
2023-07-03T14:42:51.815Z,57.53
2023-07-03T14:45:54.155Z,57.69
2023-07-03T14:48:56.419Z,58.55
2023-07-03T14:51:58.345Z,57.78
2023-07-03T14:55:00.375Z,57.83
2023-07-03T14:58:02.434Z,58.28
2023-07-03T15:01:05.194Z,58.36
2023-07-03T15:04:09.964Z,58.75
2023-07-03T15:07:12.554Z,58.11
2023-07-03T15:10:16.533Z,59.18
2023-07-03T15:13:18.601Z,59.05
2023-07-03T15:16:20.675Z,59.39
2023-07-03T15:19:22.741Z,58.08
2023-07-03T15:22:24.865Z,58.09
2023-07-03T15:25:27.174Z,57.30
2023-07-03T15:28:29.129Z,57.35
2023-07-03T15:31:31.632Z,57.64
2023-07-03T15:34:33.683Z,57.74
2023-07-03T15:37:35.703Z,57.85
2023-07-03T15:40:38.799Z,58.21
2023-07-03T15:43:41.083Z,58.70
2023-07-03T15:46:43.926Z,58.68
2023-07-03T15:49:47.426Z,58.41
2023-07-03T15:52:49.387Z,59.57
2023-07-03T15:56:04.178Z,59.42
2023-07-03T15:59:06.898Z,60.06
2023-07-03T16:02:08.857Z,60.00
2023-07-03T16:05:11.948Z,59.73
2023-07-03T16:08:13.833Z,59.68
2023-07-03T16:11:21.442Z,59.25
2023-07-03T16:14:23.492Z,58.93
2023-07-03T16:17:25.712Z,58.82
2023-07-03T16:20:27.972Z,58.67
2023-07-03T16:23:32.521Z,59.52
2023-07-03T16:26:34.973Z,60.67
2023-07-03T16:29:36.936Z,61.10
2023-07-03T16:32:39.010Z,61.69
2023-07-03T16:35:40.990Z,61.06
2023-07-03T16:38:51.376Z,60.08
2023-07-03T16:41:53.387Z,59.80
2023-07-03T16:44:55.436Z,58.26
2023-07-03T16:47:58.589Z,57.59
2023-07-03T16:51:02.033Z,58.03
2023-07-03T16:54:04.249Z,58.14
2023-07-03T16:57:06.405Z,59.63
2023-07-03T17:00:09.743Z,60.28
2023-07-03T17:03:13.116Z,60.96
2023-07-03T17:06:22.069Z,60.94
2023-07-03T17:09:24.372Z,61.47
2023-07-03T17:12:26.496Z,61.89
2023-07-03T17:15:28.913Z,63.07
2023-07-03T17:18:31.148Z,63.34
2023-07-03T17:21:33.617Z,63.95
2023-07-03T17:24:36.122Z,64.51
2023-07-03T17:27:38.701Z,65.07
2023-07-03T17:30:41.095Z,64.92
2023-07-03T17:33:43.726Z,64.83
2023-07-03T17:36:45.946Z,65.64
2023-07-03T17:39:48.296Z,66.08
2023-07-03T17:42:50.749Z,66.20
2023-07-03T17:45:54.848Z,66.92
2023-07-03T17:48:57.740Z,67.49
2023-07-03T17:51:59.909Z,67.70
2023-07-03T17:55:02.264Z,67.71
2023-07-03T17:58:05.238Z,67.72
2023-07-03T18:01:07.982Z,68.00
2023-07-03T18:04:11.031Z,68.12
2023-07-03T18:07:15.593Z,67.86
2023-07-03T18:10:17.848Z,67.88
2023-07-03T18:13:20.403Z,68.10
2023-07-03T18:16:23.188Z,68.24
2023-07-03T18:19:25.500Z,68.69
2023-07-03T18:22:28.215Z,69.52
2023-07-03T18:25:30.843Z,69.80
2023-07-03T18:28:33.192Z,69.83
2023-07-03T18:31:35.805Z,70.10
2023-07-03T18:34:38.154Z,70.42
2023-07-03T18:37:40.916Z,70.35
2023-07-03T18:40:45.038Z,70.87
2023-07-03T18:43:47.735Z,71.40
2023-07-03T18:46:50.311Z,71.67
2023-07-03T18:49:52.568Z,72.16
2023-07-03T18:52:54.764Z,72.40
2023-07-03T18:55:57.382Z,72.70
2023-07-03T18:59:00.340Z,72.77
2023-07-03T19:02:02.699Z,73.54
2023-07-03T19:05:06.695Z,73.23
2023-07-03T19:08:09.316Z,73.43
2023-07-03T19:11:12.111Z,73.18
2023-07-03T19:14:16.266Z,73.58
2023-07-03T19:17:19.383Z,73.94
2023-07-03T19:20:22.550Z,73.87
2023-07-03T19:23:25.621Z,74.35
2023-07-03T19:26:30.656Z,74.52
2023-07-03T19:29:33.404Z,74.95
2023-07-03T19:32:36.102Z,75.28
2023-07-03T19:35:38.526Z,75.64
2023-07-03T19:38:43.466Z,76.11
2023-07-03T19:41:45.943Z,76.08
2023-07-03T19:44:48.469Z,76.42
2023-07-03T19:47:51.455Z,77.00
2023-07-03T19:50:54.571Z,77.03
2023-07-03T19:53:57.079Z,77.13
2023-07-03T19:56:59.679Z,77.24
2023-07-03T20:00:02.169Z,77.51
2023-07-03T20:03:04.674Z,77.71
2023-07-03T20:06:19.643Z,77.36
2023-07-03T20:09:22.211Z,77.59
2023-07-03T20:12:25.031Z,78.01
2023-07-03T20:15:27.029Z,77.47
2023-07-03T20:18:29.369Z,77.30
2023-07-03T20:21:32.084Z,77.60
2023-07-03T20:24:36.254Z,77.01
2023-07-03T20:27:39.283Z,76.57
2023-07-03T20:30:47.653Z,76.63
2023-07-03T20:33:50.515Z,76.64
2023-07-03T20:36:53.161Z,76.60
2023-07-03T20:39:59.058Z,76.45
2023-07-03T20:43:01.266Z,76.70
2023-07-03T20:46:06.048Z,76.79
2023-07-03T20:49:10.804Z,77.92
2023-07-03T20:52:15.691Z,78.82
2023-07-03T20:55:24.689Z,78.66
2023-07-03T20:58:26.976Z,79.25
2023-07-03T21:01:37.840Z,79.54
2023-07-03T21:04:40.903Z,79.55
2023-07-03T21:07:42.925Z,80.70
2023-07-03T21:10:45.075Z,80.08
2023-07-03T21:13:49.593Z,81.26
2023-07-03T21:16:51.663Z,82.06
2023-07-03T21:19:54.071Z,83.86
2023-07-03T21:22:56.106Z,84.19
2023-07-03T21:25:58.279Z,83.71
2023-07-03T21:29:00.800Z,85.23
2023-07-03T21:32:03.051Z,85.16
2023-07-03T21:35:05.512Z,84.98
2023-07-03T21:38:07.575Z,84.71
2023-07-03T21:41:11.766Z,84.46
2023-07-03T21:44:17.012Z,84.00
2023-07-03T21:47:19.354Z,83.58
2023-07-03T21:50:22.314Z,83.12
2023-07-03T21:53:24.507Z,82.92
2023-07-03T21:56:29.472Z,82.48
2023-07-03T21:59:31.484Z,82.02
2023-07-03T22:02:36.308Z,81.50
2023-07-03T22:05:38.311Z,81.27
2023-07-03T22:08:40.313Z,80.77
2023-07-03T22:11:42.361Z,80.14
2023-07-03T22:14:44.576Z,79.56
2023-07-03T22:17:46.524Z,77.89
2023-07-03T22:20:52.998Z,77.60
2023-07-03T22:23:55.185Z,77.67
2023-07-03T22:26:57.238Z,78.04
2023-07-03T22:29:59.585Z,79.36
2023-07-03T22:33:01.683Z,80.17
2023-07-03T22:36:03.919Z,80.56
2023-07-03T22:39:05.931Z,80.65
2023-07-03T22:42:08.187Z,81.06
2023-07-03T22:45:11.003Z,81.35
2023-07-03T22:48:13.175Z,81.43
2023-07-03T22:51:15.324Z,81.32
2023-07-03T22:54:18.341Z,81.42
2023-07-03T22:57:22.306Z,82.14
2023-07-03T23:00:24.789Z,83.61
2023-07-03T23:03:27.776Z,83.59
2023-07-03T23:06:30.287Z,84.19
2023-07-03T23:09:33.640Z,84.72
2023-07-03T23:12:35.920Z,85.42
2023-07-03T23:15:38.008Z,86.07
2023-07-03T23:18:41.715Z,87.41
2023-07-03T23:21:49.683Z,87.19
2023-07-03T23:24:55.745Z,87.47
2023-07-03T23:27:58.123Z,87.71
2023-07-03T23:31:02.269Z,87.38
2023-07-03T23:34:06.831Z,87.72
2023-07-03T23:37:09.431Z,93.20
2023-07-03T23:40:12.207Z,93.59
2023-07-03T23:43:14.939Z,93.98
2023-07-03T23:46:18.377Z,94.10
2023-07-03T23:49:20.489Z,92.79
2023-07-03T23:52:23.722Z,95.65
2023-07-03T23:55:26.264Z,96.06
2023-07-03T23:58:28.355Z,95.09
